sensor_id;sensor_type;location;lat;lon;timestamp;temperature;humidity
23079;DHT22;11707;50.830;4.364;2024-01-25T00:01:34;9.90;99.90
23079;DHT22;11707;50.830;4.364;2024-01-25T00:04:02;9.80;99.90
23079;DHT22;11707;50.830;4.364;2024-01-25T00:06:28;9.70;99.90
23079;DHT22;11707;50.830;4.364;2024-01-25T00:08:54;9.80;99.90
23079;DHT22;11707;50.830;4.364;2024-01-25T00:11:20;9.70;99.90
23079;DHT22;11707;50.830;4.364;2024-01-25T00:13:48;9.80;99.90
23079;DHT22;11707;50.830;4.364;2024-01-25T00:16:13;9.70;99.90
23079;DHT22;11707;50.830;4.364;2024-01-25T00:18:39;9.70;99.90
23079;DHT22;11707;50.830;4.364;2024-01-25T00:21:07;9.70;99.90
23079;DHT22;11707;50.830;4.364;2024-01-25T00:23:35;9.60;99.90
23079;DHT22;11707;50.830;4.364;2024-01-25T00:26:01;9.60;99.90
23079;DHT22;11707;50.830;4.364;2024-01-25T00:28:29;9.50;99.90
23079;DHT22;11707;50.830;4.364;2024-01-25T00:30:55;9.50;99.90
23079;DHT22;11707;50.830;4.364;2024-01-25T00:33:20;9.60;99.90
23079;DHT22;11707;50.830;4.364;2024-01-25T00:35:46;9.60;99.90
23079;DHT22;11707;50.830;4.364;2024-01-25T00:38:12;9.50;99.90
23079;DHT22;11707;50.830;4.364;2024-01-25T00:40:39;9.50;99.90
23079;DHT22;11707;50.830;4.364;2024-01-25T00:43:05;9.60;99.90
23079;DHT22;11707;50.830;4.364;2024-01-25T00:45:31;9.60;99.90
23079;DHT22;11707;50.830;4.364;2024-01-25T00:47:57;9.50;99.90
23079;DHT22;11707;50.830;4.364;2024-01-25T00:50:23;9.60;99.90
23079;DHT22;11707;50.830;4.364;2024-01-25T00:52:53;9.50;99.90
23079;DHT22;11707;50.830;4.364;2024-01-25T00:55:20;9.40;99.90
23079;DHT22;11707;50.830;4.364;2024-01-25T00:57:46;9.40;99.90
23079;DHT22;11707;50.830;4.364;2024-01-25T01:00:12;9.30;99.90
23079;DHT22;11707;50.830;4.364;2024-01-25T01:02:43;9.40;99.90
23079;DHT22;11707;50.830;4.364;2024-01-25T01:05:10;9.40;99.90
23079;DHT22;11707;50.830;4.364;2024-01-25T01:07:37;9.40;99.90
23079;DHT22;11707;50.830;4.364;2024-01-25T01:10:05;9.40;99.90
23079;DHT22;11707;50.830;4.364;2024-01-25T01:12:33;9.50;99.90
23079;DHT22;11707;50.830;4.364;2024-01-25T01:14:59;9.50;99.90
23079;DHT22;11707;50.830;4.364;2024-01-25T01:17:24;9.30;99.90
23079;DHT22;11707;50.830;4.364;2024-01-25T01:19:50;9.40;99.90
23079;DHT22;11707;50.830;4.364;2024-01-25T01:22:16;9.30;99.90
23079;DHT22;11707;50.830;4.364;2024-01-25T01:24:42;9.40;99.90
23079;DHT22;11707;50.830;4.364;2024-01-25T01:27:07;9.30;99.90
23079;DHT22;11707;50.830;4.364;2024-01-25T01:29:35;9.30;99.90
23079;DHT22;11707;50.830;4.364;2024-01-25T01:32:03;9.30;99.90
23079;DHT22;11707;50.830;4.364;2024-01-25T01:34:29;9.30;99.90
23079;DHT22;11707;50.830;4.364;2024-01-25T01:36:55;9.30;99.90
23079;DHT22;11707;50.830;4.364;2024-01-25T01:39:21;9.30;99.90
23079;DHT22;11707;50.830;4.364;2024-01-25T01:41:49;9.20;99.90
23079;DHT22;11707;50.830;4.364;2024-01-25T01:44:15;9.20;99.90
23079;DHT22;11707;50.830;4.364;2024-01-25T01:46:41;9.20;99.90
23079;DHT22;11707;50.830;4.364;2024-01-25T01:49:13;9.10;99.90
23079;DHT22;11707;50.830;4.364;2024-01-25T01:51:42;9.20;99.90
23079;DHT22;11707;50.830;4.364;2024-01-25T01:54:09;9.30;99.90
23079;DHT22;11707;50.830;4.364;2024-01-25T01:56:36;9.30;99.90
23079;DHT22;11707;50.830;4.364;2024-01-25T01:59:06;9.30;99.90
23079;DHT22;11707;50.830;4.364;2024-01-25T02:01:33;9.40;99.90
23079;DHT22;11707;50.830;4.364;2024-01-25T02:03:59;9.30;99.90
23079;DHT22;11707;50.830;4.364;2024-01-25T02:06:25;9.10;99.90
23079;DHT22;11707;50.830;4.364;2024-01-25T02:08:56;9.10;99.90
23079;DHT22;11707;50.830;4.364;2024-01-25T02:11:24;9.10;99.90
23079;DHT22;11707;50.830;4.364;2024-01-25T02:13:50;9.10;99.90
23079;DHT22;11707;50.830;4.364;2024-01-25T02:16:16;9.20;99.90
23079;DHT22;11707;50.830;4.364;2024-01-25T02:18:45;9.20;99.90
23079;DHT22;11707;50.830;4.364;2024-01-25T02:21:12;9.10;99.90
23079;DHT22;11707;50.830;4.364;2024-01-25T02:23:38;9.10;99.90
23079;DHT22;11707;50.830;4.364;2024-01-25T02:26:03;9.10;99.90
23079;DHT22;11707;50.830;4.364;2024-01-25T02:28:29;9.10;99.90
23079;DHT22;11707;50.830;4.364;2024-01-25T02:30:55;9.10;99.90
23079;DHT22;11707;50.830;4.364;2024-01-25T02:33:23;9.10;99.90
23079;DHT22;11707;50.830;4.364;2024-01-25T02:35:50;9.10;99.90
23079;DHT22;11707;50.830;4.364;2024-01-25T02:38:16;9.20;99.90
23079;DHT22;11707;50.830;4.364;2024-01-25T02:40:42;9.20;99.90
23079;DHT22;11707;50.830;4.364;2024-01-25T02:43:10;9.20;99.90
23079;DHT22;11707;50.830;4.364;2024-01-25T02:45:36;9.20;99.90
23079;DHT22;11707;50.830;4.364;2024-01-25T02:48:02;9.30;99.90
23079;DHT22;11707;50.830;4.364;2024-01-25T02:50:28;9.30;99.90
23079;DHT22;11707;50.830;4.364;2024-01-25T02:52:54;9.40;99.90
23079;DHT22;11707;50.830;4.364;2024-01-25T02:55:22;9.40;99.90
23079;DHT22;11707;50.830;4.364;2024-01-25T02:57:48;9.60;94.60
23079;DHT22;11707;50.830;4.364;2024-01-25T03:00:14;9.50;94.80
23079;DHT22;11707;50.830;4.364;2024-01-25T03:02:42;9.50;96.50
23079;DHT22;11707;50.830;4.364;2024-01-25T03:05:12;9.50;95.90
23079;DHT22;11707;50.830;4.364;2024-01-25T03:07:38;9.50;96.00
23079;DHT22;11707;50.830;4.364;2024-01-25T03:10:04;9.60;92.00
23079;DHT22;11707;50.830;4.364;2024-01-25T03:12:32;9.60;85.00
23079;DHT22;11707;50.830;4.364;2024-01-25T03:14:58;9.60;80.70
23079;DHT22;11707;50.830;4.364;2024-01-25T03:17:23;9.50;80.50
23079;DHT22;11707;50.830;4.364;2024-01-25T03:19:51;9.30;90.00
23079;DHT22;11707;50.830;4.364;2024-01-25T03:22:17;9.30;91.90
23079;DHT22;11707;50.830;4.364;2024-01-25T03:24:42;9.30;96.30
23079;DHT22;11707;50.830;4.364;2024-01-25T03:27:08;9.20;94.70
23079;DHT22;11707;50.830;4.364;2024-01-25T03:29:41;9.30;96.70
23079;DHT22;11707;50.830;4.364;2024-01-25T03:32:07;9.20;98.90
23079;DHT22;11707;50.830;4.364;2024-01-25T03:34:33;9.20;99.00
23079;DHT22;11707;50.830;4.364;2024-01-25T03:36:58;9.20;99.00
23079;DHT22;11707;50.830;4.364;2024-01-25T03:39:24;9.30;95.50
23079;DHT22;11707;50.830;4.364;2024-01-25T03:41:50;9.30;95.00
23079;DHT22;11707;50.830;4.364;2024-01-25T03:44:16;9.40;95.20
23079;DHT22;11707;50.830;4.364;2024-01-25T03:46:41;9.40;93.90
23079;DHT22;11707;50.830;4.364;2024-01-25T03:49:07;9.30;95.70
23079;DHT22;11707;50.830;4.364;2024-01-25T03:51:32;9.30;95.00
23079;DHT22;11707;50.830;4.364;2024-01-25T03:53:58;9.40;91.00
23079;DHT22;11707;50.830;4.364;2024-01-25T03:56:24;9.40;90.50
23079;DHT22;11707;50.830;4.364;2024-01-25T03:58:51;9.30;93.70
23079;DHT22;11707;50.830;4.364;2024-01-25T04:01:17;9.40;91.50
23079;DHT22;11707;50.830;4.364;2024-01-25T04:03:42;9.50;72.30
23079;DHT22;11707;50.830;4.364;2024-01-25T04:06:13;9.50;70.10
23079;DHT22;11707;50.830;4.364;2024-01-25T04:08:41;9.40;75.70
23079;DHT22;11707;50.830;4.364;2024-01-25T04:11:06;9.30;83.80
23079;DHT22;11707;50.830;4.364;2024-01-25T04:13:35;9.30;88.50
23079;DHT22;11707;50.830;4.364;2024-01-25T04:16:00;9.20;90.70
23079;DHT22;11707;50.830;4.364;2024-01-25T04:18:26;9.10;91.60
23079;DHT22;11707;50.830;4.364;2024-01-25T04:20:52;9.20;95.80
23079;DHT22;11707;50.830;4.364;2024-01-25T04:23:17;9.20;94.70
23079;DHT22;11707;50.830;4.364;2024-01-25T04:25:43;9.20;93.80
23079;DHT22;11707;50.830;4.364;2024-01-25T04:28:11;9.20;94.00
23079;DHT22;11707;50.830;4.364;2024-01-25T04:30:37;9.00;95.30
23079;DHT22;11707;50.830;4.364;2024-01-25T04:33:03;9.00;97.50
23079;DHT22;11707;50.830;4.364;2024-01-25T04:35:29;9.00;97.90
23079;DHT22;11707;50.830;4.364;2024-01-25T04:37:57;9.10;98.20
23079;DHT22;11707;50.830;4.364;2024-01-25T04:40:25;9.20;94.90
23079;DHT22;11707;50.830;4.364;2024-01-25T04:42:50;9.20;91.40
23079;DHT22;11707;50.830;4.364;2024-01-25T04:45:16;9.10;93.50
23079;DHT22;11707;50.830;4.364;2024-01-25T04:47:44;9.10;94.00
23079;DHT22;11707;50.830;4.364;2024-01-25T04:50:10;9.20;94.50
23079;DHT22;11707;50.830;4.364;2024-01-25T04:52:38;9.20;92.90
23079;DHT22;11707;50.830;4.364;2024-01-25T04:55:04;9.20;93.00
23079;DHT22;11707;50.830;4.364;2024-01-25T04:57:29;9.20;93.30
23079;DHT22;11707;50.830;4.364;2024-01-25T04:59:55;9.00;97.00
23079;DHT22;11707;50.830;4.364;2024-01-25T05:02:23;9.00;97.80
23079;DHT22;11707;50.830;4.364;2024-01-25T05:04:49;9.10;97.50
23079;DHT22;11707;50.830;4.364;2024-01-25T05:07:14;9.10;97.80
23079;DHT22;11707;50.830;4.364;2024-01-25T05:09:40;9.20;96.00
23079;DHT22;11707;50.830;4.364;2024-01-25T05:12:06;9.20;94.70
23079;DHT22;11707;50.830;4.364;2024-01-25T05:14:32;9.10;94.70
23079;DHT22;11707;50.830;4.364;2024-01-25T05:16:57;9.00;94.40
23079;DHT22;11707;50.830;4.364;2024-01-25T05:19:23;9.10;94.90
23079;DHT22;11707;50.830;4.364;2024-01-25T05:21:51;9.10;93.60
23079;DHT22;11707;50.830;4.364;2024-01-25T05:24:17;8.90;94.00
23079;DHT22;11707;50.830;4.364;2024-01-25T05:26:42;9.10;95.20
23079;DHT22;11707;50.830;4.364;2024-01-25T05:29:08;9.00;90.00
23079;DHT22;11707;50.830;4.364;2024-01-25T05:31:36;8.80;94.40
23079;DHT22;11707;50.830;4.364;2024-01-25T05:34:02;8.80;97.60
23079;DHT22;11707;50.830;4.364;2024-01-25T05:36:30;8.90;98.30
23079;DHT22;11707;50.830;4.364;2024-01-25T05:38:58;8.80;98.20
23079;DHT22;11707;50.830;4.364;2024-01-25T05:41:24;8.70;99.90
23079;DHT22;11707;50.830;4.364;2024-01-25T05:43:49;8.70;99.90
23079;DHT22;11707;50.830;4.364;2024-01-25T05:46:15;8.60;99.90
23079;DHT22;11707;50.830;4.364;2024-01-25T05:48:41;8.70;99.90
23079;DHT22;11707;50.830;4.364;2024-01-25T05:51:09;8.50;99.90
23079;DHT22;11707;50.830;4.364;2024-01-25T05:53:34;8.70;99.90
23079;DHT22;11707;50.830;4.364;2024-01-25T05:56:00;8.70;99.90
23079;DHT22;11707;50.830;4.364;2024-01-25T05:58:26;8.90;99.90
23079;DHT22;11707;50.830;4.364;2024-01-25T06:00:51;8.90;99.90
23079;DHT22;11707;50.830;4.364;2024-01-25T06:03:17;8.80;99.90
23079;DHT22;11707;50.830;4.364;2024-01-25T06:05:43;8.70;99.90
23079;DHT22;11707;50.830;4.364;2024-01-25T06:08:08;8.80;99.90
23079;DHT22;11707;50.830;4.364;2024-01-25T06:10:34;8.70;99.90
23079;DHT22;11707;50.830;4.364;2024-01-25T06:13:00;8.70;99.90
23079;DHT22;11707;50.830;4.364;2024-01-25T06:15:26;8.80;99.90
23079;DHT22;11707;50.830;4.364;2024-01-25T06:17:51;8.80;99.90
23079;DHT22;11707;50.830;4.364;2024-01-25T06:20:17;8.90;99.90
23079;DHT22;11707;50.830;4.364;2024-01-25T06:22:45;9.00;99.90
23079;DHT22;11707;50.830;4.364;2024-01-25T06:25:11;8.80;99.90
23079;DHT22;11707;50.830;4.364;2024-01-25T06:27:39;8.80;99.90
23079;DHT22;11707;50.830;4.364;2024-01-25T06:30:05;8.90;99.90
23079;DHT22;11707;50.830;4.364;2024-01-25T06:32:31;8.90;99.90
23079;DHT22;11707;50.830;4.364;2024-01-25T06:34:57;8.90;99.90
23079;DHT22;11707;50.830;4.364;2024-01-25T06:37:22;8.80;99.90
23079;DHT22;11707;50.830;4.364;2024-01-25T06:39:48;8.90;99.90
23079;DHT22;11707;50.830;4.364;2024-01-25T06:42:14;8.80;99.90
23079;DHT22;11707;50.830;4.364;2024-01-25T06:44:39;8.80;99.90
23079;DHT22;11707;50.830;4.364;2024-01-25T06:47:05;8.80;99.90
23079;DHT22;11707;50.830;4.364;2024-01-25T06:49:31;8.70;99.90
23079;DHT22;11707;50.830;4.364;2024-01-25T06:51:57;8.70;99.90
23079;DHT22;11707;50.830;4.364;2024-01-25T06:54:22;8.60;99.90
23079;DHT22;11707;50.830;4.364;2024-01-25T06:56:51;8.50;99.90
23079;DHT22;11707;50.830;4.364;2024-01-25T06:59:17;8.60;99.90
23079;DHT22;11707;50.830;4.364;2024-01-25T07:01:45;8.70;99.90
23079;DHT22;11707;50.830;4.364;2024-01-25T07:04:11;8.80;99.90
23079;DHT22;11707;50.830;4.364;2024-01-25T07:06:39;8.60;99.90
23079;DHT22;11707;50.830;4.364;2024-01-25T07:09:06;8.60;99.90
23079;DHT22;11707;50.830;4.364;2024-01-25T07:11:32;8.60;99.90
23079;DHT22;11707;50.830;4.364;2024-01-25T07:13:58;8.60;99.90
23079;DHT22;11707;50.830;4.364;2024-01-25T07:16:24;8.60;99.90
23079;DHT22;11707;50.830;4.364;2024-01-25T07:18:49;8.70;99.90
23079;DHT22;11707;50.830;4.364;2024-01-25T07:21:15;8.70;99.90
23079;DHT22;11707;50.830;4.364;2024-01-25T07:23:41;8.60;99.90
23079;DHT22;11707;50.830;4.364;2024-01-25T07:26:07;8.30;99.90
23079;DHT22;11707;50.830;4.364;2024-01-25T07:28:32;8.30;99.90
23079;DHT22;11707;50.830;4.364;2024-01-25T07:30:58;8.40;99.90
23079;DHT22;11707;50.830;4.364;2024-01-25T07:33:24;8.30;99.90
23079;DHT22;11707;50.830;4.364;2024-01-25T07:35:52;8.20;99.90
23079;DHT22;11707;50.830;4.364;2024-01-25T07:38:17;8.30;99.90
23079;DHT22;11707;50.830;4.364;2024-01-25T07:40:43;8.30;99.90
23079;DHT22;11707;50.830;4.364;2024-01-25T07:43:09;8.30;99.90
23079;DHT22;11707;50.830;4.364;2024-01-25T07:45:37;8.10;99.90
23079;DHT22;11707;50.830;4.364;2024-01-25T07:48:04;8.00;99.90
23079;DHT22;11707;50.830;4.364;2024-01-25T07:50:30;8.10;99.90
23079;DHT22;11707;50.830;4.364;2024-01-25T07:52:56;8.20;99.90
23079;DHT22;11707;50.830;4.364;2024-01-25T07:55:21;8.20;99.90
23079;DHT22;11707;50.830;4.364;2024-01-25T07:57:47;8.30;99.90
23079;DHT22;11707;50.830;4.364;2024-01-25T08:00:13;8.30;99.90
23079;DHT22;11707;50.830;4.364;2024-01-25T08:02:39;8.20;99.90
23079;DHT22;11707;50.830;4.364;2024-01-25T08:05:06;8.00;99.90
23079;DHT22;11707;50.830;4.364;2024-01-25T08:07:32;8.10;99.90
23079;DHT22;11707;50.830;4.364;2024-01-25T08:09:58;8.10;99.90
23079;DHT22;11707;50.830;4.364;2024-01-25T08:12:25;8.10;99.90
23079;DHT22;11707;50.830;4.364;2024-01-25T08:14:51;8.20;99.90
23079;DHT22;11707;50.830;4.364;2024-01-25T08:17:16;8.20;99.90
23079;DHT22;11707;50.830;4.364;2024-01-25T08:19:42;8.30;99.90
23079;DHT22;11707;50.830;4.364;2024-01-25T08:22:12;8.20;99.90
23079;DHT22;11707;50.830;4.364;2024-01-25T08:24:39;8.10;99.90
23079;DHT22;11707;50.830;4.364;2024-01-25T08:27:05;8.20;99.90
23079;DHT22;11707;50.830;4.364;2024-01-25T08:29:33;8.20;99.90
23079;DHT22;11707;50.830;4.364;2024-01-25T08:31:58;8.30;99.90
23079;DHT22;11707;50.830;4.364;2024-01-25T08:34:24;8.10;99.90
23079;DHT22;11707;50.830;4.364;2024-01-25T08:36:50;8.00;99.90
23079;DHT22;11707;50.830;4.364;2024-01-25T08:39:15;8.00;99.90
23079;DHT22;11707;50.830;4.364;2024-01-25T08:41:42;8.10;99.90
23079;DHT22;11707;50.830;4.364;2024-01-25T08:44:08;8.10;99.90
23079;DHT22;11707;50.830;4.364;2024-01-25T08:46:33;8.20;99.90
23079;DHT22;11707;50.830;4.364;2024-01-25T08:48:59;8.20;99.90
23079;DHT22;11707;50.830;4.364;2024-01-25T08:51:25;8.30;99.90
23079;DHT22;11707;50.830;4.364;2024-01-25T08:53:50;8.30;99.90
23079;DHT22;11707;50.830;4.364;2024-01-25T08:56:18;8.30;99.90
23079;DHT22;11707;50.830;4.364;2024-01-25T08:58:44;8.30;99.90
23079;DHT22;11707;50.830;4.364;2024-01-25T09:01:10;8.30;99.90
23079;DHT22;11707;50.830;4.364;2024-01-25T09:03:37;8.30;99.90
23079;DHT22;11707;50.830;4.364;2024-01-25T09:06:03;8.20;99.90
23079;DHT22;11707;50.830;4.364;2024-01-25T09:08:31;8.20;99.90
23079;DHT22;11707;50.830;4.364;2024-01-25T09:10:57;8.30;99.90
23079;DHT22;11707;50.830;4.364;2024-01-25T09:13:23;8.60;99.90
23079;DHT22;11707;50.830;4.364;2024-01-25T09:15:49;8.60;99.90
23079;DHT22;11707;50.830;4.364;2024-01-25T09:18:15;8.80;99.90
23079;DHT22;11707;50.830;4.364;2024-01-25T09:20:41;9.00;99.90
23079;DHT22;11707;50.830;4.364;2024-01-25T09:23:09;9.20;99.90
23079;DHT22;11707;50.830;4.364;2024-01-25T09:25:38;9.20;99.90
23079;DHT22;11707;50.830;4.364;2024-01-25T09:28:03;9.30;99.90
23079;DHT22;11707;50.830;4.364;2024-01-25T09:30:29;9.30;99.90
23079;DHT22;11707;50.830;4.364;2024-01-25T09:32:55;9.30;99.90
23079;DHT22;11707;50.830;4.364;2024-01-25T09:35:21;9.40;99.90
23079;DHT22;11707;50.830;4.364;2024-01-25T09:37:46;9.60;99.90
23079;DHT22;11707;50.830;4.364;2024-01-25T09:40:12;9.70;99.90
23079;DHT22;11707;50.830;4.364;2024-01-25T09:42:38;9.60;99.90
23079;DHT22;11707;50.830;4.364;2024-01-25T09:45:06;9.30;99.90
23079;DHT22;11707;50.830;4.364;2024-01-25T09:47:32;9.40;99.90
23079;DHT22;11707;50.830;4.364;2024-01-25T09:49:58;9.30;99.90
23079;DHT22;11707;50.830;4.364;2024-01-25T09:52:24;9.40;99.90
23079;DHT22;11707;50.830;4.364;2024-01-25T09:54:53;9.70;99.90
23079;DHT22;11707;50.830;4.364;2024-01-25T09:57:23;9.70;99.90
23079;DHT22;11707;50.830;4.364;2024-01-25T09:59:50;9.50;99.90
23079;DHT22;11707;50.830;4.364;2024-01-25T10:02:21;9.60;99.90
23079;DHT22;11707;50.830;4.364;2024-01-25T10:04:50;9.70;99.90
23079;DHT22;11707;50.830;4.364;2024-01-25T10:07:35;9.70;99.90
23079;DHT22;11707;50.830;4.364;2024-01-25T10:10:04;9.50;99.90
23079;DHT22;11707;50.830;4.364;2024-01-25T10:12:31;9.50;99.90
23079;DHT22;11707;50.830;4.364;2024-01-25T10:14:57;9.60;99.90
23079;DHT22;11707;50.830;4.364;2024-01-25T10:17:25;9.30;99.90
23079;DHT22;11707;50.830;4.364;2024-01-25T10:19:53;9.50;99.90
23079;DHT22;11707;50.830;4.364;2024-01-25T10:22:19;9.70;99.90
23079;DHT22;11707;50.830;4.364;2024-01-25T10:24:45;9.80;99.90
23079;DHT22;11707;50.830;4.364;2024-01-25T10:27:11;9.50;99.90
23079;DHT22;11707;50.830;4.364;2024-01-25T10:29:37;9.60;99.90
23079;DHT22;11707;50.830;4.364;2024-01-25T10:32:04;9.60;99.90
23079;DHT22;11707;50.830;4.364;2024-01-25T10:34:35;9.90;99.90
23079;DHT22;11707;50.830;4.364;2024-01-25T10:37:03;9.70;99.90
23079;DHT22;11707;50.830;4.364;2024-01-25T10:39:30;9.70;99.90
23079;DHT22;11707;50.830;4.364;2024-01-25T10:41:58;9.80;99.90
23079;DHT22;11707;50.830;4.364;2024-01-25T10:44:24;9.80;99.90
23079;DHT22;11707;50.830;4.364;2024-01-25T10:46:50;9.90;99.90
23079;DHT22;11707;50.830;4.364;2024-01-25T10:49:18;9.90;99.90
23079;DHT22;11707;50.830;4.364;2024-01-25T10:51:44;10.10;99.90
23079;DHT22;11707;50.830;4.364;2024-01-25T10:54:14;10.00;99.90
23079;DHT22;11707;50.830;4.364;2024-01-25T10:56:43;10.20;99.90
23079;DHT22;11707;50.830;4.364;2024-01-25T10:59:13;10.20;99.90
23079;DHT22;11707;50.830;4.364;2024-01-25T11:01:49;10.30;99.90
23079;DHT22;11707;50.830;4.364;2024-01-25T11:04:16;10.30;99.90
23079;DHT22;11707;50.830;4.364;2024-01-25T11:06:47;10.30;99.90
23079;DHT22;11707;50.830;4.364;2024-01-25T11:09:21;10.40;99.90
23079;DHT22;11707;50.830;4.364;2024-01-25T11:11:48;10.50;99.90
23079;DHT22;11707;50.830;4.364;2024-01-25T11:14:15;10.70;99.90
23079;DHT22;11707;50.830;4.364;2024-01-25T11:16:43;10.70;97.70
23079;DHT22;11707;50.830;4.364;2024-01-25T11:19:20;10.50;97.90
23079;DHT22;11707;50.830;4.364;2024-01-25T11:21:47;10.60;99.90
23079;DHT22;11707;50.830;4.364;2024-01-25T11:24:23;10.50;99.90
23079;DHT22;11707;50.830;4.364;2024-01-25T11:26:53;10.50;99.90
23079;DHT22;11707;50.830;4.364;2024-01-25T11:29:22;10.60;99.90
23079;DHT22;11707;50.830;4.364;2024-01-25T11:31:53;10.60;99.90
23079;DHT22;11707;50.830;4.364;2024-01-25T11:34:18;10.60;99.90
23079;DHT22;11707;50.830;4.364;2024-01-25T11:36:45;10.80;99.90
23079;DHT22;11707;50.830;4.364;2024-01-25T11:39:12;10.80;99.90
23079;DHT22;11707;50.830;4.364;2024-01-25T11:41:38;10.80;99.90
23079;DHT22;11707;50.830;4.364;2024-01-25T11:44:04;10.90;99.90
23079;DHT22;11707;50.830;4.364;2024-01-25T11:46:30;11.00;99.90
23079;DHT22;11707;50.830;4.364;2024-01-25T11:48:58;10.90;99.90
23079;DHT22;11707;50.830;4.364;2024-01-25T11:51:24;10.90;99.90
23079;DHT22;11707;50.830;4.364;2024-01-25T11:53:52;11.00;99.90
23079;DHT22;11707;50.830;4.364;2024-01-25T11:56:27;10.60;99.90
23079;DHT22;11707;50.830;4.364;2024-01-25T11:58:54;10.70;99.90
23079;DHT22;11707;50.830;4.364;2024-01-25T12:01:24;10.70;99.90
23079;DHT22;11707;50.830;4.364;2024-01-25T12:03:50;10.70;99.90
23079;DHT22;11707;50.830;4.364;2024-01-25T12:06:17;10.80;99.90
23079;DHT22;11707;50.830;4.364;2024-01-25T12:08:44;10.90;99.90
23079;DHT22;11707;50.830;4.364;2024-01-25T12:11:11;10.90;99.90
23079;DHT22;11707;50.830;4.364;2024-01-25T12:13:43;10.80;99.90
23079;DHT22;11707;50.830;4.364;2024-01-25T12:16:10;10.90;99.90
23079;DHT22;11707;50.830;4.364;2024-01-25T12:18:37;11.00;99.90
23079;DHT22;11707;50.830;4.364;2024-01-25T12:21:06;11.00;99.90
23079;DHT22;11707;50.830;4.364;2024-01-25T12:26:05;11.00;99.90
23079;DHT22;11707;50.830;4.364;2024-01-25T12:28:31;11.20;99.90
23079;DHT22;11707;50.830;4.364;2024-01-25T12:30:59;11.10;99.90
23079;DHT22;11707;50.830;4.364;2024-01-25T12:33:25;11.10;99.90
23079;DHT22;11707;50.830;4.364;2024-01-25T12:35:53;11.10;99.90
23079;DHT22;11707;50.830;4.364;2024-01-25T12:38:22;10.90;99.90
23079;DHT22;11707;50.830;4.364;2024-01-25T12:40:49;10.90;99.90
23079;DHT22;11707;50.830;4.364;2024-01-25T12:43:16;10.70;99.90
23079;DHT22;11707;50.830;4.364;2024-01-25T12:45:42;10.60;99.90
23079;DHT22;11707;50.830;4.364;2024-01-25T12:48:08;10.40;99.90
23079;DHT22;11707;50.830;4.364;2024-01-25T12:50:37;10.60;99.90
23079;DHT22;11707;50.830;4.364;2024-01-25T12:53:03;10.60;99.90
23079;DHT22;11707;50.830;4.364;2024-01-25T12:55:30;10.70;99.90
23079;DHT22;11707;50.830;4.364;2024-01-25T12:57:57;10.80;99.90
23079;DHT22;11707;50.830;4.364;2024-01-25T13:00:23;10.70;99.90
23079;DHT22;11707;50.830;4.364;2024-01-25T13:02:49;10.90;99.90
23079;DHT22;11707;50.830;4.364;2024-01-25T13:05:15;11.00;99.90
23079;DHT22;11707;50.830;4.364;2024-01-25T13:07:40;10.80;99.90
23079;DHT22;11707;50.830;4.364;2024-01-25T13:10:08;10.80;99.90
23079;DHT22;11707;50.830;4.364;2024-01-25T13:12:34;10.60;99.90
23079;DHT22;11707;50.830;4.364;2024-01-25T13:14:59;10.60;99.90
23079;DHT22;11707;50.830;4.364;2024-01-25T13:17:25;10.70;99.90
23079;DHT22;11707;50.830;4.364;2024-01-25T13:19:53;10.60;99.90
23079;DHT22;11707;50.830;4.364;2024-01-25T13:22:18;10.70;99.90
23079;DHT22;11707;50.830;4.364;2024-01-25T13:24:48;10.80;99.90
23079;DHT22;11707;50.830;4.364;2024-01-25T13:27:16;10.70;99.90
23079;DHT22;11707;50.830;4.364;2024-01-25T13:29:44;10.70;99.90
23079;DHT22;11707;50.830;4.364;2024-01-25T13:32:12;10.70;99.90
23079;DHT22;11707;50.830;4.364;2024-01-25T13:34:40;10.70;99.90
23079;DHT22;11707;50.830;4.364;2024-01-25T13:37:06;10.90;99.90
23079;DHT22;11707;50.830;4.364;2024-01-25T13:39:34;10.90;99.90
23079;DHT22;11707;50.830;4.364;2024-01-25T13:42:02;11.00;99.90
23079;DHT22;11707;50.830;4.364;2024-01-25T13:44:30;11.10;99.90
23079;DHT22;11707;50.830;4.364;2024-01-25T13:46:56;11.20;99.90
23079;DHT22;11707;50.830;4.364;2024-01-25T13:49:22;11.30;99.90
23079;DHT22;11707;50.830;4.364;2024-01-25T13:51:50;11.10;99.90
23079;DHT22;11707;50.830;4.364;2024-01-25T13:54:16;11.20;99.90
23079;DHT22;11707;50.830;4.364;2024-01-25T13:56:48;11.10;99.90
23079;DHT22;11707;50.830;4.364;2024-01-25T13:59:13;11.20;99.90
23079;DHT22;11707;50.830;4.364;2024-01-25T14:01:39;11.30;99.90
23079;DHT22;11707;50.830;4.364;2024-01-25T14:04:05;11.30;99.90
23079;DHT22;11707;50.830;4.364;2024-01-25T14:06:30;11.40;99.90
23079;DHT22;11707;50.830;4.364;2024-01-25T14:08:56;11.50;99.90
23079;DHT22;11707;50.830;4.364;2024-01-25T14:11:24;11.40;99.90
23079;DHT22;11707;50.830;4.364;2024-01-25T14:13:54;11.50;99.90
23079;DHT22;11707;50.830;4.364;2024-01-25T14:16:22;11.50;99.90
23079;DHT22;11707;50.830;4.364;2024-01-25T14:18:50;11.50;99.90
23079;DHT22;11707;50.830;4.364;2024-01-25T14:21:18;11.50;99.90
23079;DHT22;11707;50.830;4.364;2024-01-25T14:23:46;11.50;99.90
23079;DHT22;11707;50.830;4.364;2024-01-25T14:26:12;11.50;99.90
23079;DHT22;11707;50.830;4.364;2024-01-25T14:28:38;11.40;99.90
23079;DHT22;11707;50.830;4.364;2024-01-25T14:31:03;11.50;99.90
23079;DHT22;11707;50.830;4.364;2024-01-25T14:33:29;11.50;99.90
23079;DHT22;11707;50.830;4.364;2024-01-25T14:35:59;11.60;99.90
23079;DHT22;11707;50.830;4.364;2024-01-25T14:38:25;11.50;99.90
23079;DHT22;11707;50.830;4.364;2024-01-25T14:40:50;11.40;99.90
23079;DHT22;11707;50.830;4.364;2024-01-25T14:43:16;11.40;99.90
23079;DHT22;11707;50.830;4.364;2024-01-25T14:45:43;11.40;99.90
23079;DHT22;11707;50.830;4.364;2024-01-25T14:48:09;11.60;99.90
23079;DHT22;11707;50.830;4.364;2024-01-25T14:50:34;11.60;99.90
23079;DHT22;11707;50.830;4.364;2024-01-25T14:53:02;11.60;99.90
23079;DHT22;11707;50.830;4.364;2024-01-25T14:55:28;11.60;99.90
23079;DHT22;11707;50.830;4.364;2024-01-25T14:57:56;11.50;99.90
23079;DHT22;11707;50.830;4.364;2024-01-25T15:00:22;11.60;99.90
23079;DHT22;11707;50.830;4.364;2024-01-25T15:02:47;11.50;99.90
23079;DHT22;11707;50.830;4.364;2024-01-25T15:05:13;11.50;99.90
23079;DHT22;11707;50.830;4.364;2024-01-25T15:07:42;11.50;99.90
23079;DHT22;11707;50.830;4.364;2024-01-25T15:10:09;11.50;99.90
23079;DHT22;11707;50.830;4.364;2024-01-25T15:12:37;11.60;99.90
23079;DHT22;11707;50.830;4.364;2024-01-25T15:15:02;11.50;99.90
23079;DHT22;11707;50.830;4.364;2024-01-25T15:17:28;11.40;99.90
23079;DHT22;11707;50.830;4.364;2024-01-25T15:19:56;11.40;99.90
23079;DHT22;11707;50.830;4.364;2024-01-25T15:22:24;11.50;99.90
23079;DHT22;11707;50.830;4.364;2024-01-25T15:24:52;11.50;99.90
23079;DHT22;11707;50.830;4.364;2024-01-25T15:27:18;11.30;99.90
23079;DHT22;11707;50.830;4.364;2024-01-25T15:29:44;11.30;99.90
23079;DHT22;11707;50.830;4.364;2024-01-25T15:32:09;11.40;99.90
23079;DHT22;11707;50.830;4.364;2024-01-25T15:34:35;11.40;99.90
23079;DHT22;11707;50.830;4.364;2024-01-25T15:37:01;11.30;99.90
23079;DHT22;11707;50.830;4.364;2024-01-25T15:39:26;11.40;99.90
23079;DHT22;11707;50.830;4.364;2024-01-25T15:41:52;11.60;99.90